^ Back to Top

Niederschlagsradar DWD

© Deutscher Wetterdienst, Offenbach (DWD)

Aviation WX

[source: ADDS]
METAR
EDDN 241650Z 11004KT 020V150 7000 BKN012 M08/M10 Q1029 R28/19//95 NOSIG =
TAF
TAF EDDN 241100Z 2412/2512 08004KT 4500 BR BKN010 TEMPO 2412/2421 2500 -SG BR OVC007 TEMPO 2421/2512 6000 BKN015 =
SR / SS: 06:55 / 15:59 UTC (ETHR 2017-01-24)

Statistiken

Besucher
47
Beiträge
36
Weblinks
10
Anzahl Beitragshäufigkeit
62970